Terminal Aerodrome Forecast
Issued by NWS

Home | Current Version | Previous Version | Text Only | Print | Product List | Glossary On
Versions: 1 2 3 4 5 6 7 8 9 10 11 12 13 14 15 16 17 18 19 20 21 22 23 24 25
000
FTUS43 KAPX 051024 AAB
TAFTVC
TAF AMD
KTVC 051024Z 0510/0606 00000KT 6SM BR OVC008
     FM051300 24004KT P6SM OVC010
     FM051500 34006KT P6SM BKN015
     FM051700 36006KT P6SM SCT025
     FM060000 00000KT 6SM BR SCT040=

USA.gov is the U.S. government's official web portal to all federal, state and local government web resources and services.